WetterOnline ( http://www.wetteronline.de )

Wetter aktuell Werl

Aktuelles Wetter: Werl (84m)

6-stündlich | Neueste Meldungen
Ortszeit Temperatur Wetter
So, 22.04. 8:00 11.9° C bewölkt
So, 22.04. 2:00 11.6° C wolkig
Sa, 21.04. 20:00 19.1° C leicht bewölkt
Sa, 21.04. 14:00 20.5° C wolkenlos
Sa, 21.04. 8:00 12.3° C leicht bewölkt
Sa, 21.04. 2:00 13.9° C wolkig
Fr, 20.04. 20:00 23.2° C bedeckt
Fr, 20.04. 14:00 25.9° C wolkig
Ortszeit Temperatur Wetter
So, 22.04. 10:30 19.0° C wolkig
So, 22.04. 10:20 19.0° C wolkig
So, 22.04. 10:10 18.1° C wolkig
So, 22.04. 10:00 17.0° C leicht bewölkt
So, 22.04. 9:50 17.0° C wolkig
So, 22.04. 9:40 16.3° C wolkig
So, 22.04. 9:30 15.2° C leicht bewölkt
So, 22.04. 9:00 13.4° C wolkig
So, 22.04. 8:30 12.5° C bewölkt
So, 22.04. 8:00 11.9° C bewölkt
So, 22.04. 7:30 11.4° C fast wolkenlos
Ortszeit Relative Feuchte Sichtweite
So, 22.04. 8:00 79% 14 km
So, 22.04. 2:00 77% 14 km
Sa, 21.04. 20:00 57% 21 km
Sa, 21.04. 14:00 55% 5.0 km
Sa, 21.04. 8:00 92% 2.5 km
Sa, 21.04. 2:00 82% 6 km
Fr, 20.04. 20:00 48% 27 km
Fr, 20.04. 14:00 35% 23 km
Ortszeit Relative Feuchte Sichtweite
So, 22.04. 10:30 66% 11 km
So, 22.04. 10:20 66% -
So, 22.04. 10:10 68% -
So, 22.04. 10:00 70% 14 km
So, 22.04. 9:50 70% -
So, 22.04. 9:40 71% -
So, 22.04. 9:30 72% 13 km
So, 22.04. 9:00 74% 15 km
So, 22.04. 8:30 78% 14 km
So, 22.04. 8:00 79% 14 km
So, 22.04. 7:30 80% 13 km
Ortszeit Niederschlagsmenge Niederschlagsart
So, 22.04. 8:00 0.0 l/m2 in 12 Std. -
So, 22.04. 2:00 0.0 l/m2 in 6 Std. -
Sa, 21.04. 20:00 0.0 l/m2 in 12 Std. -
Sa, 21.04. 14:00 0.0 l/m2 in 6 Std. -
Sa, 21.04. 8:00 0.0 l/m2 in 12 Std. -
Sa, 21.04. 2:00 0.0 l/m2 in 6 Std. -
Fr, 20.04. 20:00 0.0 l/m2 in 12 Std. -
Fr, 20.04. 14:00 0.0 l/m2 in 6 Std. -
Ortszeit Niederschlagsmenge Niederschlagsart
So, 22.04. 10:30 0.0 l/m2 in 1 Std. -
So, 22.04. 10:20 keine Meldung -
So, 22.04. 10:10 keine Meldung -
So, 22.04. 10:00 0.0 l/m2 in 1 Std. -
So, 22.04. 9:50 keine Meldung -
So, 22.04. 9:40 keine Meldung -
So, 22.04. 9:30 0.0 l/m2 in 1 Std. -
So, 22.04. 9:00 0.0 l/m2 in 1 Std. -
So, 22.04. 8:30 0.0 l/m2 in 1 Std. -
So, 22.04. 8:00 0.0 l/m2 in 1 Std. -
So, 22.04. 7:30 0.0 l/m2 in 1 Std. -
Ortszeit Stärke Spitze Richtung
km/h Bft. km/h Grad Sektor
So, 22.04. 8:00 7 2 11 90° O
So, 22.04. 2:00 7 2 14 60° NO
Sa, 21.04. 20:00 7 2 18 40° NO
Sa, 21.04. 14:00 9 2 19 40° NO
Sa, 21.04. 8:00 7 2 11 260° W
Sa, 21.04. 2:00 4 1 18 270° W
Fr, 20.04. 20:00 6 1 26 300° NW
Fr, 20.04. 14:00 7 2 18 260° W
Ortszeit Stärke Spitze Richtung
km/h Bft. km/h Grad Sektor
So, 22.04. 10:30 7 2 11 50° NO
So, 22.04. 10:20 7 2 - 50° NO
So, 22.04. 10:10 7 2 - 40° NO
So, 22.04. 10:00 11 2 14 60° NO
So, 22.04. 9:50 11 2 - 60° NO
So, 22.04. 9:40 11 2 - 60° NO
So, 22.04. 9:30 7 2 11 60° NO
So, 22.04. 9:00 7 2 11 90° O
So, 22.04. 8:30 7 2 11 80° O
So, 22.04. 8:00 7 2 11 90° O
So, 22.04. 7:30 6 1 9 70° O
Ortszeit Untergrenze Bedeckung Gattung
total tief tief mittel hoch
So, 22.04. 8:00 1800 m 7/8 6/8 - - -
So, 22.04. 2:00 9000 m 7/8 0/8 - - -
Sa, 21.04. 20:00 2400 m 2/8 1/8 - - -
Sa, 21.04. 14:00 - 0/8 0/8 - - -
Sa, 21.04. 8:00 1800 m 5/8 1/8 - - -
Sa, 21.04. 2:00 9000 m 8/8 0/8 - - -
Fr, 20.04. 20:00 - 8/8 - - - -
Fr, 20.04. 14:00 3600 m 5/8 - - - -
Ortszeit Bedeckungsgrad in Achtel und Wolkenuntergrenze
So, 22.04. 10:30 2(9000m) 8(9000m)
So, 22.04. 10:20 2(9000m) 8(9000m)
So, 22.04. 10:10 3(9000m) 8(9000m) 8(10500m)
So, 22.04. 10:00 1(8100m) 3(8700m) 8(9000m)
So, 22.04. 9:50 1(8100m) 3(8700m) 8(9000m)
So, 22.04. 9:40 2(8400m) 8(9000m)
So, 22.04. 9:30 2(8400m) 6(9000m)
So, 22.04. 9:00 2(9000m) 7(9000m) 7(10500m)
So, 22.04. 8:30 5(2100m) 6(2700m) 7(10500m)
So, 22.04. 8:00 6(1800m) 6(3000m) 7(10500m)
So, 22.04. 7:30 4(2100m)
Ortszeit Luftdruck NN (hPa) Tendenz (hPa in 3 Std.)
So, 22.04. 8:00 1015 - 1,5
So, 22.04. 2:00 1018 - 0,9
Sa, 21.04. 20:00 1019 - 0,9
Sa, 21.04. 14:00 1022 - 0,8
Sa, 21.04. 8:00 1022 + 1,2
Sa, 21.04. 2:00 1021 + 0,1
Fr, 20.04. 20:00 1020 - 0,9
Fr, 20.04. 14:00 1023 - 1,0
Ortszeit Luftdruck NN (hPa) Tendenz (hPa in 3 Std.)
So, 22.04. 10:30 1014 - 1,3
So, 22.04. 10:20 1014 keine Meldung
So, 22.04. 10:10 1014 keine Meldung
So, 22.04. 10:00 1014 - 1,6
So, 22.04. 9:50 1014 keine Meldung
So, 22.04. 9:40 1014 keine Meldung
So, 22.04. 9:30 1014 - 1,6
So, 22.04. 9:00 1014 - 1,8
So, 22.04. 8:30 1015 - 1,5
So, 22.04. 8:00 1015 - 1,5
So, 22.04. 7:30 1015 - 1,7
Ortszeit Schneehöhe (cm)
So, 22.04. 8:00 0
So, 22.04. 2:00 0
Sa, 21.04. 20:00 0
Sa, 21.04. 14:00 0
Sa, 21.04. 8:00 0
Sa, 21.04. 2:00 0
Fr, 20.04. 20:00 0
Fr, 20.04. 14:00 0
Ortszeit Schneehöhe (cm)
So, 22.04. 10:30 0
So, 22.04. 10:20 0
So, 22.04. 10:10 0
So, 22.04. 10:00 0
So, 22.04. 9:50 0
So, 22.04. 9:40 0
So, 22.04. 9:30 0
So, 22.04. 9:00 0
So, 22.04. 8:30 0
So, 22.04. 8:00 0
So, 22.04. 7:30 0
Link zu dieser Seite / Seite empfehlen

Das Wetter in ...